Time;durP1;ratioP1;P1;durP2;ratioP2;P2;SDS_P1;SDS_P2;PMS_P1;PMS_P2;Temp;Humidity;BMP_temperature;BMP_pressure;BME280_temperature;BME280_humidity;BME280_pressure;Samples;Min_cycle;Max_cycle;Signal;HPM_P1;HPM_P2
2022/03/18 00:00:24;;;;;;;28.90;18.87;;;;;;;;;;7372439;19;20944;-79
2022/03/18 00:02:57;;;;;;;28.50;19.30;;;;;;;;;;7372232;19;21259;-78
2022/03/18 00:05:27;;;;;;;28.80;19.63;;;;;;;;;;7372562;19;20438;-78
2022/03/18 00:07:57;;;;;;;24.67;17.07;;;;;;;;;;7376920;19;20400;-78
2022/03/18 00:10:29;;;;;;;28.77;18.57;;;;;;;;;;7376936;19;21309;-77
2022/03/18 00:12:59;;;;;;;26.33;18.67;;;;;;;;;;7376211;19;20411;-76
2022/03/18 00:15:28;;;;;;;26.60;17.40;;;;;;;;;;7374593;19;20413;-77
2022/03/18 00:17:58;;;;;;;24.40;16.10;;;;;;;;;;7377578;19;20884;-76
2022/03/18 00:20:30;;;;;;;25.83;17.73;;;;;;;;;;7375430;19;20405;-77
2022/03/18 00:23:03;;;;;;;26.63;17.23;;;;;;;;;;7373271;19;20416;-77
2022/03/18 00:25:35;;;;;;;26.47;18.63;;;;;;;;;;7373030;19;20412;-76
2022/03/18 00:28:05;;;;;;;24.27;15.93;;;;;;;;;;7376852;19;20468;-76
2022/03/18 00:30:35;;;;;;;25.80;16.30;;;;;;;;;;7365211;19;21467;-75
2022/03/18 00:33:05;;;;;;;23.33;16.00;;;;;;;;;;7374982;19;20420;-76
2022/03/18 00:35:35;;;;;;;22.23;15.80;;;;;;;;;;7373410;19;20421;-76
2022/03/18 00:38:05;;;;;;;25.23;16.30;;;;;;;;;;7377737;19;20930;-78
2022/03/18 00:40:37;;;;;;;22.20;16.10;;;;;;;;;;7376245;19;20409;-77
2022/03/18 00:43:09;;;;;;;22.80;15.80;;;;;;;;;;7373994;19;20412;-76
2022/03/18 00:45:38;;;;;;;23.03;15.30;;;;;;;;;;7371439;19;20448;-77
2022/03/18 00:53:36;;;;;;;22.40;14.67;;;;;;;;;;7373900;19;20397;-77
2022/03/18 00:56:09;;;;;;;20.33;14.50;;;;;;;;;;7370401;19;20462;-76
2022/03/18 00:58:38;;;;;;;23.90;14.80;;;;;;;;;;7374320;19;20853;-77
2022/03/18 01:01:08;;;;;;;21.00;14.80;;;;;;;;;;7373753;19;20376;-76
2022/03/18 01:03:39;;;;;;;19.17;14.37;;;;;;;;;;7376075;19;20408;-74
2022/03/18 01:06:09;;;;;;;18.27;13.23;;;;;;;;;;7354452;19;20429;-74
2022/03/18 01:08:39;;;;;;;24.17;15.13;;;;;;;;;;7384445;19;20433;-75
2022/03/18 01:11:14;;;;;;;21.07;15.00;;;;;;;;;;7387212;19;20432;-74
2022/03/18 01:13:43;;;;;;;19.90;14.47;;;;;;;;;;7353968;19;20368;-77
2022/03/18 01:16:13;;;;;;;17.97;13.40;;;;;;;;;;7361309;19;20404;-76
2022/03/18 01:18:43;;;;;;;20.77;14.27;;;;;;;;;;7373131;19;20372;-75
2022/03/18 01:21:13;;;;;;;18.53;12.57;;;;;;;;;;7388607;19;20431;-75
2022/03/18 01:23:45;;;;;;;20.83;14.47;;;;;;;;;;7384012;19;20862;-76
2022/03/18 01:26:17;;;;;;;21.47;14.17;;;;;;;;;;7383065;19;20473;-75
2022/03/18 01:28:49;;;;;;;21.50;14.48;;;;;;;;;;7386685;19;20416;-75
2022/03/18 01:31:18;;;;;;;23.40;13.60;;;;;;;;;;7391572;19;20136;-75
2022/03/18 01:33:48;;;;;;;21.60;13.77;;;;;;;;;;7390890;19;20392;-76
2022/03/18 01:36:17;;;;;;;18.10;13.03;;;;;;;;;;7371462;19;20408;-75
2022/03/18 01:38:47;;;;;;;22.50;13.33;;;;;;;;;;7374582;19;20616;-74
2022/03/18 01:41:21;;;;;;;20.20;13.52;;;;;;;;;;7375916;19;20414;-77
2022/03/18 01:43:51;;;;;;;20.37;13.90;;;;;;;;;;7374150;19;20254;-75
2022/03/18 01:46:24;;;;;;;18.33;12.70;;;;;;;;;;7372790;19;20506;-77
2022/03/18 01:48:54;;;;;;;21.77;13.70;;;;;;;;;;7376921;19;20414;-75
2022/03/18 01:51:23;;;;;;;19.58;13.05;;;;;;;;;;7373096;19;20944;-76
2022/03/18 01:56:42;;;;;;;20.50;13.50;;;;;;;;;;7370946;19;21014;-76
2022/03/18 01:59:12;;;;;;;20.33;14.73;;;;;;;;;;7373662;19;21162;-76
2022/03/18 02:01:42;;;;;;;18.73;13.33;;;;;;;;;;7366518;19;20396;-76
2022/03/18 02:04:12;;;;;;;20.83;13.20;;;;;;;;;;7374319;19;20939;-75
2022/03/18 02:06:45;;;;;;;19.13;12.93;;;;;;;;;;7369932;19;20925;-74
2022/03/18 02:09:14;;;;;;;19.07;13.50;;;;;;;;;;7376630;19;20372;-75
2022/03/18 02:11:49;;;;;;;21.23;13.70;;;;;;;;;;7365284;19;20409;-75
2022/03/18 02:14:31;;;;;;;18.92;12.73;;;;;;;;;;7369706;19;20411;-75
2022/03/18 02:17:01;;;;;;;20.20;12.90;;;;;;;;;;7371061;19;20504;-76
2022/03/18 02:19:31;;;;;;;16.83;11.73;;;;;;;;;;7374479;19;20420;-76
2022/03/18 02:22:01;;;;;;;17.10;13.10;;;;;;;;;;7376562;19;20417;-77
2022/03/18 02:24:33;;;;;;;20.03;13.13;;;;;;;;;;7377156;19;20459;-74
2022/03/18 02:27:03;;;;;;;17.80;12.67;;;;;;;;;;7378154;19;20392;-75
2022/03/18 02:29:33;;;;;;;21.03;12.80;;;;;;;;;;7381271;19;20922;-74
2022/03/18 02:32:03;;;;;;;18.13;12.95;;;;;;;;;;7380505;19;20416;-75
2022/03/18 02:34:34;;;;;;;16.33;11.87;;;;;;;;;;7377795;19;20143;-76
2022/03/18 02:37:03;;;;;;;16.27;12.40;;;;;;;;;;7383358;19;20416;-75
2022/03/18 02:39:38;;;;;;;23.70;12.80;;;;;;;;;;7377903;19;20803;-76
2022/03/18 02:42:08;;;;;;;17.80;13.43;;;;;;;;;;7379836;19;20412;-75
2022/03/18 02:44:37;;;;;;;13.68;11.77;;;;;;;;;;7371989;19;20475;-76
2022/03/18 02:47:07;;;;;;;17.63;12.30;;;;;;;;;;7381018;19;20138;-76
2022/03/18 02:49:37;;;;;;;17.80;12.53;;;;;;;;;;7380358;19;20412;-76
2022/03/18 02:52:07;;;;;;;16.83;11.63;;;;;;;;;;7381048;19;21549;-75
2022/03/18 02:54:39;;;;;;;18.20;13.33;;;;;;;;;;7376845;19;20431;-77
2022/03/18 02:57:12;;;;;;;16.67;11.67;;;;;;;;;;7375431;19;20411;-78
2022/03/18 02:59:42;;;;;;;18.87;12.50;;;;;;;;;;7376867;19;22355;-78
2022/03/18 03:02:15;;;;;;;15.57;11.80;;;;;;;;;;7378864;19;20978;-77
2022/03/18 03:10:14;;;;;;;17.33;12.20;;;;;;;;;;7378169;19;20165;-77
2022/03/18 03:12:43;;;;;;;17.77;11.83;;;;;;;;;;7375582;19;20405;-77
2022/03/18 03:15:13;;;;;;;19.30;13.23;;;;;;;;;;7373398;19;20412;-77
2022/03/18 03:17:45;;;;;;;20.50;12.83;;;;;;;;;;7378680;19;20412;-76
2022/03/18 03:20:17;;;;;;;20.37;12.57;;;;;;;;;;7378819;19;21259;-79
2022/03/18 03:22:47;;;;;;;16.30;11.37;;;;;;;;;;7381158;19;20412;-78
2022/03/18 03:25:19;;;;;;;16.57;11.70;;;;;;;;;;7371824;19;21319;-78
2022/03/18 03:27:49;;;;;;;19.00;12.77;;;;;;;;;;7374793;19;20396;-76
2022/03/18 03:30:21;;;;;;;16.67;11.57;;;;;;;;;;7373325;19;20461;-76
2022/03/18 03:32:51;;;;;;;17.63;11.00;;;;;;;;;;7380323;19;20456;-77
2022/03/18 03:35:21;;;;;;;17.53;10.70;;;;;;;;;;7370794;19;20736;-77
2022/03/18 03:37:51;;;;;;;16.90;11.87;;;;;;;;;;7367957;19;20427;-77
2022/03/18 03:40:24;;;;;;;16.80;12.37;;;;;;;;;;7370504;19;21250;-77
2022/03/18 03:42:54;;;;;;;16.47;12.00;;;;;;;;;;7377174;19;20404;-78
2022/03/18 03:45:24;;;;;;;17.17;11.53;;;;;;;;;;7371077;19;20423;-77
2022/03/18 03:47:53;;;;;;;17.13;11.97;;;;;;;;;;7377942;19;20440;-78
2022/03/18 03:50:23;;;;;;;16.17;12.23;;;;;;;;;;7378714;19;20397;-77
2022/03/18 03:52:53;;;;;;;19.63;12.50;;;;;;;;;;7379758;19;20372;-78
2022/03/18 03:55:25;;;;;;;19.10;12.90;;;;;;;;;;7372157;19;24343;-77
2022/03/18 03:57:54;;;;;;;18.70;11.93;;;;;;;;;;7388114;19;20456;-76
2022/03/18 04:00:24;;;;;;;15.77;11.70;;;;;;;;;;7378240;19;20409;-77
2022/03/18 04:02:53;;;;;;;18.90;12.37;;;;;;;;;;7386273;19;20390;-75
2022/03/18 04:05:23;;;;;;;20.27;13.65;;;;;;;;;;7379366;19;21047;-74
2022/03/18 04:07:53;;;;;;;19.90;12.70;;;;;;;;;;7382773;19;20127;-76
2022/03/18 04:10:25;;;;;;;20.90;12.47;;;;;;;;;;7373644;19;20396;-75
2022/03/18 04:12:55;;;;;;;19.63;12.00;;;;;;;;;;7376347;19;20400;-75
2022/03/18 04:15:24;;;;;;;16.90;12.80;;;;;;;;;;7374346;19;20147;-76
2022/03/18 04:17:54;;;;;;;17.73;11.98;;;;;;;;;;7383763;19;21522;-75
2022/03/18 04:20:25;;;;;;;20.83;11.93;;;;;;;;;;7376809;19;20135;-75
2022/03/18 04:22:55;;;;;;;16.00;11.60;;;;;;;;;;7378210;19;20408;-75
2022/03/18 04:25:30;;;;;;;15.80;12.00;;;;;;;;;;7372873;19;20417;-76
2022/03/18 04:28:00;;;;;;;18.07;12.33;;;;;;;;;;7377178;19;20391;-76
2022/03/18 04:30:30;;;;;;;19.03;11.90;;;;;;;;;;7371836;19;20377;-76
2022/03/18 04:32:59;;;;;;;19.63;10.90;;;;;;;;;;7375591;19;20488;-76
2022/03/18 04:35:31;;;;;;;18.73;13.07;;;;;;;;;;7375964;19;20376;-76
2022/03/18 04:38:01;;;;;;;17.20;12.30;;;;;;;;;;7372174;19;20420;-77
2022/03/18 04:40:34;;;;;;;19.75;12.63;;;;;;;;;;7363999;19;20463;-77
2022/03/18 04:43:03;;;;;;;17.00;12.07;;;;;;;;;;7379228;19;20207;-76
2022/03/18 04:45:33;;;;;;;15.37;11.43;;;;;;;;;;7370925;19;20870;-75
2022/03/18 04:48:03;;;;;;;19.43;13.60;;;;;;;;;;7372602;19;20477;-75
2022/03/18 04:50:32;;;;;;;18.73;12.20;;;;;;;;;;7369094;19;20447;-75
2022/03/18 04:53:02;;;;;;;16.83;13.10;;;;;;;;;;7373296;19;20416;-78
2022/03/18 04:55:34;;;;;;;19.30;12.50;;;;;;;;;;7375688;19;20529;-77
2022/03/18 04:58:04;;;;;;;19.53;12.90;;;;;;;;;;7371584;19;20430;-77
2022/03/18 05:00:35;;;;;;;17.70;12.90;;;;;;;;;;7372204;19;20364;-78
2022/03/18 05:03:05;;;;;;;17.80;11.85;;;;;;;;;;7374290;19;20144;-77
2022/03/18 05:05:35;;;;;;;20.17;11.60;;;;;;;;;;7373731;19;20862;-77
2022/03/18 05:08:04;;;;;;;20.48;13.85;;;;;;;;;;7374806;19;20135;-76
2022/03/18 05:10:37;;;;;;;18.75;12.48;;;;;;;;;;7377872;19;20128;-77
2022/03/18 05:13:06;;;;;;;20.50;11.60;;;;;;;;;;7371346;19;20627;-76
2022/03/18 05:15:36;;;;;;;19.23;13.05;;;;;;;;;;7366668;19;20403;-75
2022/03/18 05:18:06;;;;;;;16.23;12.10;;;;;;;;;;7371819;19;20164;-80
2022/03/18 05:20:35;;;;;;;20.73;14.00;;;;;;;;;;7370423;19;20183;-77
2022/03/18 05:23:06;;;;;;;24.77;14.48;;;;;;;;;;7374160;19;20977;-77
2022/03/18 05:25:40;;;;;;;19.83;12.80;;;;;;;;;;7365833;19;20603;-77
2022/03/18 05:28:10;;;;;;;20.77;13.20;;;;;;;;;;7373649;19;20404;-77
2022/03/18 05:30:40;;;;;;;17.67;13.60;;;;;;;;;;7361287;19;20408;-77
2022/03/18 05:33:10;;;;;;;21.80;13.60;;;;;;;;;;7373574;19;20535;-76
2022/03/18 05:35:40;;;;;;;18.90;12.63;;;;;;;;;;7366797;19;21438;-75
2022/03/18 05:38:09;;;;;;;18.83;13.30;;;;;;;;;;7376763;19;20388;-75
2022/03/18 05:40:41;;;;;;;24.13;12.20;;;;;;;;;;7366404;19;20431;-76
2022/03/18 05:43:11;;;;;;;22.40;13.13;;;;;;;;;;7373110;19;20487;-77
2022/03/18 05:45:41;;;;;;;18.50;12.13;;;;;;;;;;7365802;19;20403;-77
2022/03/18 05:48:10;;;;;;;20.25;13.15;;;;;;;;;;7364306;19;20416;-78
2022/03/18 05:50:40;;;;;;;24.13;15.17;;;;;;;;;;7365124;19;20822;-79
2022/03/18 05:53:09;;;;;;;22.80;12.77;;;;;;;;;;7372446;19;20412;-78
2022/03/18 05:58:24;;;;;;;16.88;12.20;;;;;;;;;;7374408;19;20417;-77
2022/03/18 06:00:53;;;;;;;19.80;13.10;;;;;;;;;;7374237;19;20143;-78
2022/03/18 06:03:25;;;;;;;22.00;14.27;;;;;;;;;;7382340;19;20479;-80
2022/03/18 06:05:55;;;;;;;23.10;13.85;;;;;;;;;;7376912;19;20143;-80
2022/03/18 06:13:54;;;;;;;22.53;14.40;;;;;;;;;;7384226;19;20433;-79
2022/03/18 06:16:23;;;;;;;26.07;14.37;;;;;;;;;;7381079;19;21109;-73
2022/03/18 06:18:54;;;;;;;23.80;15.43;;;;;;;;;;7381124;19;20412;-74
2022/03/18 06:21:24;;;;;;;20.70;14.10;;;;;;;;;;7378115;19;20390;-74
2022/03/18 06:23:53;;;;;;;27.67;15.37;;;;;;;;;;7373828;19;20415;-73
2022/03/18 06:26:25;;;;;;;26.50;15.60;;;;;;;;;;7364728;19;20388;-73
2022/03/18 06:28:55;;;;;;;23.02;15.15;;;;;;;;;;7368935;19;21222;-73
2022/03/18 06:31:25;;;;;;;23.00;14.00;;;;;;;;;;7373084;19;20140;-74
2022/03/18 06:33:54;;;;;;;24.33;14.53;;;;;;;;;;7380996;19;20417;-74
2022/03/18 06:36:24;;;;;;;18.40;13.57;;;;;;;;;;7374544;19;20420;-74
2022/03/18 06:38:53;;;;;;;19.83;13.63;;;;;;;;;;7373967;19;20423;-74
2022/03/18 06:41:26;;;;;;;27.10;17.60;;;;;;;;;;7375551;19;20419;-73
2022/03/18 06:43:59;;;;;;;25.40;15.00;;;;;;;;;;7374640;19;21077;-71
2022/03/18 06:46:29;;;;;;;22.90;14.60;;;;;;;;;;7368526;19;20404;-73
2022/03/18 06:48:59;;;;;;;22.50;15.37;;;;;;;;;;7378175;19;20451;-74
2022/03/18 06:51:28;;;;;;;22.30;14.50;;;;;;;;;;7381252;19;20927;-74
2022/03/18 06:54:00;;;;;;;24.23;14.40;;;;;;;;;;7374070;19;20863;-73
2022/03/18 06:56:32;;;;;;;26.63;16.92;;;;;;;;;;7375278;19;20997;-74
2022/03/18 06:59:03;;;;;;;24.00;15.97;;;;;;;;;;7382771;19;20135;-74
2022/03/18 07:01:32;;;;;;;25.53;15.87;;;;;;;;;;7381894;19;20951;-84
2022/03/18 07:04:02;;;;;;;28.13;18.87;;;;;;;;;;7383540;19;20408;-79
2022/03/18 07:06:32;;;;;;;22.87;15.47;;;;;;;;;;7379140;19;20420;-76
2022/03/18 07:09:02;;;;;;;26.40;16.50;;;;;;;;;;7372459;19;21026;-76
2022/03/18 07:11:34;;;;;;;27.90;17.50;;;;;;;;;;7367713;19;20458;-73
2022/03/18 07:14:03;;;;;;;33.05;20.38;;;;;;;;;;7374512;19;20899;-74
2022/03/18 07:19:15;;;;;;;29.50;17.63;;;;;;;;;;7360370;19;21336;-74
2022/03/18 07:21:46;;;;;;;32.10;18.83;;;;;;;;;;7373458;19;20364;-78
2022/03/18 07:24:18;;;;;;;27.33;18.50;;;;;;;;;;7380535;19;20685;-79
2022/03/18 07:26:50;;;;;;;27.67;18.80;;;;;;;;;;7380646;19;20383;-78
2022/03/18 07:29:20;;;;;;;28.67;17.23;;;;;;;;;;7384066;19;20537;-79
2022/03/18 07:31:51;;;;;;;30.63;18.83;;;;;;;;;;7379970;19;20416;-79
2022/03/18 07:34:21;;;;;;;28.60;18.73;;;;;;;;;;7381289;19;20380;-79
2022/03/18 07:36:53;;;;;;;33.10;20.77;;;;;;;;;;7383113;19;20405;-79
2022/03/18 07:39:23;;;;;;;34.03;20.10;;;;;;;;;;7376951;19;20516;-79
2022/03/18 07:41:55;;;;;;;33.77;20.60;;;;;;;;;;7380461;19;20365;-79
2022/03/18 07:44:25;;;;;;;33.20;19.50;;;;;;;;;;7380915;19;20400;-79
2022/03/18 07:46:54;;;;;;;33.20;19.77;;;;;;;;;;7381211;19;20480;-79
2022/03/18 07:49:24;;;;;;;34.90;19.40;;;;;;;;;;7381312;19;20920;-79
2022/03/18 07:51:53;;;;;;;29.30;19.73;;;;;;;;;;7383027;19;20415;-79
2022/03/18 07:54:23;;;;;;;35.50;21.37;;;;;;;;;;7379173;19;20452;-80
2022/03/18 07:56:55;;;;;;;37.43;21.57;;;;;;;;;;7377717;19;20376;-79
2022/03/18 07:59:25;;;;;;;36.10;23.60;;;;;;;;;;7381909;19;20376;-78
2022/03/18 08:01:54;;;;;;;34.67;21.03;;;;;;;;;;7375146;19;20368;-80
2022/03/18 08:04:24;;;;;;;31.73;20.37;;;;;;;;;;7381703;19;20409;-79
2022/03/18 08:06:54;;;;;;;33.23;21.03;;;;;;;;;;7381151;19;20940;-79
2022/03/18 08:09:24;;;;;;;32.50;21.27;;;;;;;;;;7378592;19;21010;-80
2022/03/18 08:11:58;;;;;;;37.27;24.10;;;;;;;;;;7381384;19;20428;-80
2022/03/18 08:14:28;;;;;;;38.67;24.80;;;;;;;;;;7380308;19;20412;-79
2022/03/18 08:16:58;;;;;;;37.87;22.63;;;;;;;;;;7379056;19;20380;-80
2022/03/18 08:19:30;;;;;;;34.37;22.40;;;;;;;;;;7381623;19;21000;-74
2022/03/18 08:22:00;;;;;;;33.27;22.20;;;;;;;;;;7380024;19;20930;-73
2022/03/18 08:24:30;;;;;;;38.67;23.33;;;;;;;;;;7376732;19;20460;-74
2022/03/18 08:27:02;;;;;;;38.33;25.27;;;;;;;;;;7373591;19;20415;-73
2022/03/18 08:29:31;;;;;;;37.50;23.27;;;;;;;;;;7380732;19;20440;-73
2022/03/18 08:32:01;;;;;;;39.73;22.93;;;;;;;;;;7374421;19;20412;-73
2022/03/18 08:34:31;;;;;;;36.27;23.47;;;;;;;;;;7376140;19;21379;-73
2022/03/18 08:37:00;;;;;;;39.57;25.23;;;;;;;;;;7378270;19;20360;-73
2022/03/18 08:39:30;;;;;;;35.17;24.00;;;;;;;;;;7377734;19;20416;-73
2022/03/18 08:42:02;;;;;;;35.23;23.40;;;;;;;;;;7378194;19;20399;-73
2022/03/18 08:44:32;;;;;;;34.37;22.70;;;;;;;;;;7375320;19;20446;-73
2022/03/18 08:47:01;;;;;;;39.00;22.20;;;;;;;;;;7375739;19;20896;-74
2022/03/18 08:49:31;;;;;;;32.80;22.03;;;;;;;;;;7376165;19;20416;-73
2022/03/18 08:52:03;;;;;;;33.03;23.90;;;;;;;;;;7379782;19;20412;-73
2022/03/18 08:54:32;;;;;;;34.27;21.70;;;;;;;;;;7375086;19;20475;-73
2022/03/18 08:57:05;;;;;;;35.27;23.37;;;;;;;;;;7378688;19;20368;-73
2022/03/18 08:59:34;;;;;;;31.07;20.40;;;;;;;;;;7377257;19;20416;-74
2022/03/18 09:02:04;;;;;;;32.83;21.20;;;;;;;;;;7375219;19;20421;-73
2022/03/18 09:04:33;;;;;;;32.73;21.80;;;;;;;;;;7377222;19;20447;-74
2022/03/18 09:07:03;;;;;;;41.03;22.27;;;;;;;;;;7376133;19;20475;-73
2022/03/18 09:09:33;;;;;;;31.60;19.93;;;;;;;;;;7379827;19;20412;-74
2022/03/18 09:12:05;;;;;;;32.20;21.73;;;;;;;;;;7371553;19;20429;-74
2022/03/18 09:14:35;;;;;;;29.10;19.57;;;;;;;;;;7361916;19;20845;-74
2022/03/18 09:17:05;;;;;;;40.13;21.27;;;;;;;;;;7364879;19;20412;-73
2022/03/18 09:19:37;;;;;;;32.50;20.87;;;;;;;;;;7370405;19;20427;-74
2022/03/18 09:22:08;;;;;;;30.30;19.57;;;;;;;;;;7368558;19;20409;-75
2022/03/18 09:24:38;;;;;;;28.87;18.07;;;;;;;;;;7365868;19;20484;-74
2022/03/18 09:27:11;;;;;;;28.90;17.20;;;;;;;;;;7356821;19;20447;-75
2022/03/18 09:29:40;;;;;;;25.87;17.20;;;;;;;;;;7360381;19;20412;-80
2022/03/18 09:32:10;;;;;;;27.10;17.00;;;;;;;;;;7360428;19;20499;-76
2022/03/18 09:34:40;;;;;;;27.83;19.13;;;;;;;;;;7367074;19;20427;-75
2022/03/18 09:37:10;;;;;;;27.80;18.30;;;;;;;;;;7372544;19;20963;-76
2022/03/18 09:39:40;;;;;;;26.50;16.70;;;;;;;;;;7371277;19;20397;-75
2022/03/18 09:42:12;;;;;;;29.83;17.53;;;;;;;;;;7369457;19;21403;-75
2022/03/18 09:44:41;;;;;;;25.20;17.97;;;;;;;;;;7366936;19;20417;-75
2022/03/18 09:47:12;;;;;;;23.80;16.80;;;;;;;;;;7376030;19;20392;-77
2022/03/18 09:49:46;;;;;;;26.60;18.40;;;;;;;;;;7373332;19;20408;-75
2022/03/18 09:52:17;;;;;;;27.00;18.67;;;;;;;;;;7373880;19;21644;-75
2022/03/18 09:54:46;;;;;;;29.90;18.90;;;;;;;;;;7369135;19;20435;-76
2022/03/18 09:57:19;;;;;;;27.43;17.43;;;;;;;;;;7358000;19;20427;-76
2022/03/18 09:59:48;;;;;;;30.13;20.10;;;;;;;;;;7368585;19;20404;-72
2022/03/18 10:02:28;;;;;;;28.60;18.47;;;;;;;;;;7370017;19;20486;-73
2022/03/18 10:04:59;;;;;;;25.40;18.50;;;;;;;;;;7369752;19;20376;-73
2022/03/18 10:07:29;;;;;;;26.30;18.13;;;;;;;;;;7363690;19;20377;-74
2022/03/18 10:10:08;;;;;;;30.40;20.17;;;;;;;;;;7361874;19;21069;-74
2022/03/18 10:12:41;;;;;;;27.57;19.23;;;;;;;;;;7359709;19;20412;-73
2022/03/18 10:15:15;;;;;;;28.63;18.53;;;;;;;;;;7363322;19;20412;-73
2022/03/18 10:17:49;;;;;;;26.20;19.33;;;;;;;;;;7359331;19;20404;-72
2022/03/18 10:20:29;;;;;;;27.93;19.33;;;;;;;;;;7363069;19;20481;-74
2022/03/18 10:23:00;;;;;;;27.10;20.07;;;;;;;;;;7359290;19;20420;-74
2022/03/18 10:25:48;;;;;;;23.73;17.97;;;;;;;;;;7371455;19;21033;-73
2022/03/18 10:28:21;;;;;;;26.87;19.57;;;;;;;;;;7365492;19;20416;-73
2022/03/18 10:30:51;;;;;;;25.80;18.00;;;;;;;;;;7368657;19;20412;-73
2022/03/18 10:33:20;;;;;;;23.20;18.13;;;;;;;;;;7375093;19;20424;-74
2022/03/18 10:38:36;;;;;;;30.60;20.07;;;;;;;;;;7357832;19;20430;-73
2022/03/18 10:41:08;;;;;;;26.60;19.60;;;;;;;;;;7366164;19;20401;-74
2022/03/18 10:43:53;;;;;;;27.60;20.47;;;;;;;;;;7372597;19;20475;-73
2022/03/18 10:46:25;;;;;;;25.23;20.00;;;;;;;;;;7357998;19;20412;-73
2022/03/18 10:49:05;;;;;;;26.77;19.97;;;;;;;;;;7370089;19;20502;-73
2022/03/18 10:51:34;;;;;;;26.63;20.60;;;;;;;;;;7379277;19;20364;-73
2022/03/18 10:54:04;;;;;;;27.80;20.97;;;;;;;;;;7375433;19;20480;-73
2022/03/18 10:56:54;;;;;;;31.10;22.77;;;;;;;;;;7372784;19;20517;-73
2022/03/18 10:59:24;;;;;;;26.37;20.87;;;;;;;;;;7377609;19;20411;-75
2022/03/18 11:01:57;;;;;;;25.93;18.80;;;;;;;;;;7374032;19;20411;-76
2022/03/18 11:04:27;;;;;;;29.40;20.07;;;;;;;;;;7371452;19;20416;-75
2022/03/18 11:12:25;;;;;;;24.57;19.47;;;;;;;;;;7378422;19;20506;-75
2022/03/18 11:14:56;;;;;;;29.80;21.73;;;;;;;;;;7372403;19;20396;-74
2022/03/18 11:17:28;;;;;;;36.87;20.47;;;;;;;;;;7367327;19;20784;-75
2022/03/18 11:20:01;;;;;;;30.40;21.43;;;;;;;;;;7378722;19;20411;-74
2022/03/18 11:22:33;;;;;;;32.00;22.43;;;;;;;;;;7370066;19;20413;-75
2022/03/18 11:25:03;;;;;;;29.20;20.23;;;;;;;;;;7368050;19;20404;-75
2022/03/18 11:27:33;;;;;;;27.87;21.00;;;;;;;;;;7376973;19;20948;-75
2022/03/18 11:30:18;;;;;;;26.43;21.57;;;;;;;;;;7376018;19;21224;-75
2022/03/18 11:33:07;;;;;;;26.80;20.77;;;;;;;;;;7378450;19;20443;-74
2022/03/18 11:35:52;;;;;;;26.17;20.30;;;;;;;;;;7374141;19;20441;-75
2022/03/18 11:38:23;;;;;;;24.60;20.00;;;;;;;;;;7377969;19;20396;-75
2022/03/18 11:40:54;;;;;;;27.90;20.83;;;;;;;;;;7370203;19;20926;-75
2022/03/18 11:43:41;;;;;;;27.10;20.30;;;;;;;;;;7368390;19;20501;-76
2022/03/18 11:46:23;;;;;;;28.30;20.73;;;;;;;;;;7372432;19;20389;-75
2022/03/18 11:48:56;;;;;;;21.57;17.90;;;;;;;;;;7371387;19;20417;-74
2022/03/18 11:51:29;;;;;;;27.10;20.43;;;;;;;;;;7374450;19;20937;-74
2022/03/18 11:54:00;;;;;;;26.03;20.47;;;;;;;;;;7370177;19;20412;-75
2022/03/18 11:56:50;;;;;;;27.40;20.37;;;;;;;;;;7368807;19;20757;-75
2022/03/18 11:59:50;;;;;;;27.13;20.53;;;;;;;;;;7368640;19;20798;-76
2022/03/18 12:02:23;;;;;;;27.00;21.00;;;;;;;;;;7368510;19;20424;-75
2022/03/18 12:04:56;;;;;;;27.40;21.80;;;;;;;;;;7369403;19;20411;-75
2022/03/18 12:07:28;;;;;;;25.60;19.67;;;;;;;;;;7365978;19;20421;-74
2022/03/18 12:10:01;;;;;;;24.63;19.10;;;;;;;;;;7374969;19;20420;-74
2022/03/18 12:12:32;;;;;;;26.20;20.93;;;;;;;;;;7373393;19;20416;-75
2022/03/18 12:15:03;;;;;;;25.97;20.67;;;;;;;;;;7370593;19;20393;-75
2022/03/18 12:17:33;;;;;;;28.73;21.20;;;;;;;;;;7371372;19;20396;-75
2022/03/18 12:20:06;;;;;;;23.57;19.80;;;;;;;;;;7372754;19;20453;-74
2022/03/18 12:22:40;;;;;;;29.53;23.07;;;;;;;;;;7374980;19;20416;-74
2022/03/18 12:25:11;;;;;;;29.83;22.33;;;;;;;;;;7373925;19;20409;-74
2022/03/18 12:27:41;;;;;;;30.07;23.20;;;;;;;;;;7370971;19;20517;-74
2022/03/18 12:30:13;;;;;;;28.27;21.53;;;;;;;;;;7370508;19;20384;-74
2022/03/18 12:32:51;;;;;;;34.80;23.87;;;;;;;;;;7375907;19;20396;-73
2022/03/18 12:35:28;;;;;;;32.17;24.90;;;;;;;;;;7371653;19;20404;-74
2022/03/18 12:38:07;;;;;;;30.20;22.00;;;;;;;;;;7368507;19;20371;-74
2022/03/18 12:40:38;;;;;;;39.40;23.63;;;;;;;;;;7374805;19;20412;-74
2022/03/18 12:43:07;;;;;;;31.17;22.27;;;;;;;;;;7373645;19;20417;-73
2022/03/18 12:45:38;;;;;;;30.20;22.67;;;;;;;;;;7378165;19;20408;-74
2022/03/18 12:48:09;;;;;;;31.57;22.80;;;;;;;;;;7375328;19;20408;-76
2022/03/18 12:50:42;;;;;;;28.87;20.70;;;;;;;;;;7364746;19;20420;-77
2022/03/18 12:53:14;;;;;;;30.00;21.87;;;;;;;;;;7374209;19;20514;-77
2022/03/18 12:55:45;;;;;;;29.17;21.57;;;;;;;;;;7363354;19;20452;-76
2022/03/18 12:58:41;;;;;;;26.53;21.17;;;;;;;;;;7376670;19;20488;-76
2022/03/18 13:01:13;;;;;;;25.83;20.30;;;;;;;;;;7367562;19;20412;-76
2022/03/18 13:03:49;;;;;;;27.60;20.70;;;;;;;;;;7366619;19;20372;-74
2022/03/18 13:06:22;;;;;;;31.50;22.55;;;;;;;;;;7354331;19;20781;-74
2022/03/18 13:08:54;;;;;;;25.50;20.80;;;;;;;;;;7338383;19;20428;-73
2022/03/18 13:11:24;;;;;;;26.63;20.43;;;;;;;;;;7327312;19;20991;-74
2022/03/18 13:13:55;;;;;;;28.67;21.30;;;;;;;;;;7351790;19;20396;-76
2022/03/18 13:16:25;;;;;;;24.80;20.20;;;;;;;;;;7311286;19;20405;-76
2022/03/18 13:18:56;;;;;;;25.07;20.47;;;;;;;;;;7344208;19;20487;-76
2022/03/18 13:21:29;;;;;;;25.40;19.80;;;;;;;;;;7353464;19;20412;-76
2022/03/18 13:23:59;;;;;;;25.37;20.40;;;;;;;;;;7353838;19;20408;-75
2022/03/18 13:26:29;;;;;;;23.03;19.77;;;;;;;;;;7356023;19;20369;-74
2022/03/18 13:28:58;;;;;;;29.90;21.60;;;;;;;;;;7366742;19;20453;-74
2022/03/18 13:34:10;;;;;;;25.37;19.87;;;;;;;;;;7356051;19;20896;-72
2022/03/18 13:36:42;;;;;;;25.27;19.50;;;;;;;;;;7367253;19;20514;-75
2022/03/18 13:39:13;;;;;;;27.60;19.77;;;;;;;;;;7374132;19;21241;-72
2022/03/18 13:41:48;;;;;;;21.50;17.30;;;;;;;;;;7375677;19;20743;-73
2022/03/18 13:44:18;;;;;;;27.70;19.87;;;;;;;;;;7370516;19;20410;-72
2022/03/18 13:46:59;;;;;;;25.37;19.20;;;;;;;;;;7376465;19;20416;-74
2022/03/18 13:49:29;;;;;;;26.57;19.70;;;;;;;;;;7372017;19;20399;-73
2022/03/18 13:52:06;;;;;;;20.80;17.07;;;;;;;;;;7372795;19;20804;-73
2022/03/18 13:54:44;;;;;;;24.63;18.57;;;;;;;;;;7372518;19;21086;-76
2022/03/18 13:57:15;;;;;;;25.63;19.50;;;;;;;;;;7370469;19;20445;-75
2022/03/18 13:59:54;;;;;;;25.27;18.70;;;;;;;;;;7373701;19;20420;-74
2022/03/18 14:02:25;;;;;;;26.00;18.20;;;;;;;;;;7370582;19;20419;-74
2022/03/18 14:04:56;;;;;;;23.30;18.40;;;;;;;;;;7375896;19;20459;-76
2022/03/18 14:07:44;;;;;;;24.57;19.03;;;;;;;;;;7372931;19;20908;-77
2022/03/18 14:10:14;;;;;;;25.13;18.97;;;;;;;;;;7368612;19;20953;-75
2022/03/18 14:12:59;;;;;;;23.97;18.93;;;;;;;;;;7374281;19;20373;-74
2022/03/18 14:15:34;;;;;;;23.17;18.27;;;;;;;;;;7368282;19;20534;-74
2022/03/18 14:18:05;;;;;;;20.73;17.30;;;;;;;;;;7377184;19;20439;-74
2022/03/18 14:20:35;;;;;;;22.37;17.13;;;;;;;;;;7370149;19;21115;-74
2022/03/18 14:23:21;;;;;;;22.23;16.37;;;;;;;;;;7376467;19;20403;-73
2022/03/18 14:25:51;;;;;;;23.10;17.80;;;;;;;;;;7378714;19;20376;-74
2022/03/18 14:28:21;;;;;;;20.80;16.10;;;;;;;;;;7376088;19;20778;-74
2022/03/18 14:30:53;;;;;;;18.77;15.97;;;;;;;;;;7380396;19;20421;-73
2022/03/18 14:33:25;;;;;;;20.30;15.93;;;;;;;;;;7374641;19;21031;-73
2022/03/18 14:35:55;;;;;;;25.60;17.70;;;;;;;;;;7382411;19;20963;-73
2022/03/18 14:38:28;;;;;;;21.20;15.97;;;;;;;;;;7381398;19;20404;-73
2022/03/18 14:41:01;;;;;;;20.00;17.43;;;;;;;;;;7374851;19;20367;-73
2022/03/18 14:43:31;;;;;;;21.00;16.13;;;;;;;;;;7381580;19;20408;-73
2022/03/18 14:46:00;;;;;;;21.47;16.13;;;;;;;;;;7379867;19;20974;-73
2022/03/18 14:48:30;;;;;;;19.63;16.23;;;;;;;;;;7380506;19;20457;-73
2022/03/18 14:51:02;;;;;;;21.80;16.87;;;;;;;;;;7380541;19;20376;-75
2022/03/18 14:53:37;;;;;;;21.43;17.47;;;;;;;;;;7398518;19;20388;-92
2022/03/18 14:56:26;;;;;;;24.77;18.17;;;;;;;;;;7393719;19;20430;-89
2022/03/18 14:58:59;;;;;;;26.57;17.20;;;;;;;;;;7396826;19;20702;-92
2022/03/18 15:01:28;;;;;;;24.47;18.13;;;;;;;;;;7386334;19;20412;-95
2022/03/18 15:04:05;;;;;;;22.70;16.87;;;;;;;;;;7388642;19;20395;-94
2022/03/18 15:06:35;;;;;;;25.50;17.53;;;;;;;;;;7387777;19;20403;-92
2022/03/18 15:09:07;;;;;;;29.70;18.93;;;;;;;;;;7385789;19;20421;-89
2022/03/18 15:11:38;;;;;;;23.77;18.00;;;;;;;;;;7386273;19;20411;-76
2022/03/18 15:14:07;;;;;;;25.10;17.50;;;;;;;;;;7366537;19;20572;-75
2022/03/18 15:16:37;;;;;;;26.80;17.93;;;;;;;;;;7349996;19;21297;-75